Weather at Lancaster Airport

Public forecast

Using degrees Fahrenheit for public forecast. Weather courtesy of forecast.io.

Current aviation weather report (METAR) for Lancaster Airport

Retrieved 2020/09/30 18:53 UTC (20 minutes ago):

KLNS 301853Z 26012G18KT 10SM FEW055 21/07 A2978 RMK AO2 SLP084 T02110067

Aviation forecast (TAF) for Lancaster Airport

Retrieved 2020/09/30 18:34 UTC (39 minutes ago):

TAF KLNS 301732Z 3018/0118 27014G20KT P6SM BKN045 FM010000 23013KT P6SM SCT050 SCT250 FM010400 23007KT P6SM SCT250 FM010900 28007KT P6SM BKN250